sensor_id;sensor_type;location;lat;lon;timestamp;P1;durP1;ratioP1;P2;durP2;ratioP2
21474;SDS011;10899;53.576;9.960;2022-10-23T00:01:34;17.75;;;8.75;;
21474;SDS011;10899;53.576;9.960;2022-10-23T00:04:09;18.13;;;9.35;;
21474;SDS011;10899;53.576;9.960;2022-10-23T00:06:36;20.90;;;9.07;;
21474;SDS011;10899;53.576;9.960;2022-10-23T00:09:04;16.95;;;9.32;;
21474;SDS011;10899;53.576;9.960;2022-10-23T00:11:32;18.02;;;9.73;;
21474;SDS011;10899;53.576;9.960;2022-10-23T00:14:00;18.52;;;8.82;;
21474;SDS011;10899;53.576;9.960;2022-10-23T00:16:27;20.27;;;9.10;;
21474;SDS011;10899;53.576;9.960;2022-10-23T00:18:54;20.33;;;9.73;;
21474;SDS011;10899;53.576;9.960;2022-10-23T00:21:21;15.50;;;9.07;;
21474;SDS011;10899;53.576;9.960;2022-10-23T00:23:47;19.35;;;9.40;;
21474;SDS011;10899;53.576;9.960;2022-10-23T00:26:14;20.67;;;8.98;;
21474;SDS011;10899;53.576;9.960;2022-10-23T00:28:45;19.63;;;8.15;;
21474;SDS011;10899;53.576;9.960;2022-10-23T00:31:12;19.33;;;7.75;;
21474;SDS011;10899;53.576;9.960;2022-10-23T00:33:38;23.95;;;6.65;;
21474;SDS011;10899;53.576;9.960;2022-10-23T00:36:06;16.88;;;6.63;;
21474;SDS011;10899;53.576;9.960;2022-10-23T00:38:33;16.73;;;7.13;;
21474;SDS011;10899;53.576;9.960;2022-10-23T00:40:59;16.92;;;7.25;;
21474;SDS011;10899;53.576;9.960;2022-10-23T00:43:27;18.08;;;6.40;;
21474;SDS011;10899;53.576;9.960;2022-10-23T00:45:54;22.02;;;6.60;;
21474;SDS011;10899;53.576;9.960;2022-10-23T00:48:20;17.33;;;6.68;;
21474;SDS011;10899;53.576;9.960;2022-10-23T00:50:47;16.05;;;6.63;;
21474;SDS011;10899;53.576;9.960;2022-10-23T00:53:14;16.00;;;6.78;;
21474;SDS011;10899;53.576;9.960;2022-10-23T00:55:44;14.40;;;5.93;;
21474;SDS011;10899;53.576;9.960;2022-10-23T00:58:12;17.50;;;6.53;;
21474;SDS011;10899;53.576;9.960;2022-10-23T01:00:44;19.35;;;5.93;;
21474;SDS011;10899;53.576;9.960;2022-10-23T01:03:12;18.77;;;5.05;;
21474;SDS011;10899;53.576;9.960;2022-10-23T01:05:52;17.15;;;5.35;;
21474;SDS011;10899;53.576;9.960;2022-10-23T01:08:25;18.13;;;5.70;;
21474;SDS011;10899;53.576;9.960;2022-10-23T01:11:11;18.38;;;5.90;;
21474;SDS011;10899;53.576;9.960;2022-10-23T01:13:47;18.20;;;4.45;;
21474;SDS011;10899;53.576;9.960;2022-10-23T01:16:17;12.80;;;5.25;;
21474;SDS011;10899;53.576;9.960;2022-10-23T01:18:58;16.33;;;5.68;;
21474;SDS011;10899;53.576;9.960;2022-10-23T01:21:48;16.20;;;5.30;;
21474;SDS011;10899;53.576;9.960;2022-10-23T01:24:17;20.95;;;5.35;;
21474;SDS011;10899;53.576;9.960;2022-10-23T01:29:45;14.55;;;5.03;;
21474;SDS011;10899;53.576;9.960;2022-10-23T01:32:31;15.18;;;5.22;;
21474;SDS011;10899;53.576;9.960;2022-10-23T01:35:01;13.20;;;5.05;;
21474;SDS011;10899;53.576;9.960;2022-10-23T01:37:31;15.32;;;4.70;;
21474;SDS011;10899;53.576;9.960;2022-10-23T01:40:00;12.60;;;4.55;;
21474;SDS011;10899;53.576;9.960;2022-10-23T01:42:29;13.07;;;4.50;;
21474;SDS011;10899;53.576;9.960;2022-10-23T01:45:05;11.98;;;4.57;;
21474;SDS011;10899;53.576;9.960;2022-10-23T01:47:33;16.17;;;4.63;;
21474;SDS011;10899;53.576;9.960;2022-10-23T01:50:01;13.85;;;4.72;;
21474;SDS011;10899;53.576;9.960;2022-10-23T01:52:28;15.73;;;5.47;;
21474;SDS011;10899;53.576;9.960;2022-10-23T01:54:55;14.55;;;5.57;;
21474;SDS011;10899;53.576;9.960;2022-10-23T01:57:23;14.25;;;5.70;;
21474;SDS011;10899;53.576;9.960;2022-10-23T01:59:52;15.18;;;5.72;;
21474;SDS011;10899;53.576;9.960;2022-10-23T02:02:21;14.43;;;6.05;;
21474;SDS011;10899;53.576;9.960;2022-10-23T02:04:50;17.20;;;6.25;;
21474;SDS011;10899;53.576;9.960;2022-10-23T02:07:18;17.98;;;5.78;;
21474;SDS011;10899;53.576;9.960;2022-10-23T02:09:45;16.38;;;6.50;;
21474;SDS011;10899;53.576;9.960;2022-10-23T02:12:22;16.85;;;6.43;;
21474;SDS011;10899;53.576;9.960;2022-10-23T02:15:00;17.02;;;7.00;;
21474;SDS011;10899;53.576;9.960;2022-10-23T02:18:14;19.02;;;7.35;;
21474;SDS011;10899;53.576;9.960;2022-10-23T02:20:22;17.15;;;7.18;;
21474;SDS011;10899;53.576;9.960;2022-10-23T02:22:56;14.75;;;7.75;;
21474;SDS011;10899;53.576;9.960;2022-10-23T02:25:29;16.92;;;6.85;;
21474;SDS011;10899;53.576;9.960;2022-10-23T02:27:57;15.15;;;7.03;;
21474;SDS011;10899;53.576;9.960;2022-10-23T02:30:25;18.88;;;7.50;;
21474;SDS011;10899;53.576;9.960;2022-10-23T02:32:53;16.20;;;7.07;;
21474;SDS011;10899;53.576;9.960;2022-10-23T02:35:22;13.25;;;6.70;;
21474;SDS011;10899;53.576;9.960;2022-10-23T02:37:52;16.77;;;7.53;;
21474;SDS011;10899;53.576;9.960;2022-10-23T02:40:19;16.50;;;7.18;;
21474;SDS011;10899;53.576;9.960;2022-10-23T02:46:00;12.48;;;6.90;;
21474;SDS011;10899;53.576;9.960;2022-10-23T02:48:32;13.63;;;6.93;;
21474;SDS011;10899;53.576;9.960;2022-10-23T02:51:24;17.73;;;7.53;;
21474;SDS011;10899;53.576;9.960;2022-10-23T02:53:52;17.05;;;6.88;;
21474;SDS011;10899;53.576;9.960;2022-10-23T02:56:44;14.55;;;7.15;;
21474;SDS011;10899;53.576;9.960;2022-10-23T02:59:14;11.48;;;6.78;;
21474;SDS011;10899;53.576;9.960;2022-10-23T03:01:50;15.13;;;6.95;;
21474;SDS011;10899;53.576;9.960;2022-10-23T03:04:18;18.15;;;7.75;;
21474;SDS011;10899;53.576;9.960;2022-10-23T03:06:46;16.13;;;7.28;;
21474;SDS011;10899;53.576;9.960;2022-10-23T03:09:13;15.20;;;6.30;;
21474;SDS011;10899;53.576;9.960;2022-10-23T03:11:39;17.58;;;7.45;;
21474;SDS011;10899;53.576;9.960;2022-10-23T03:14:06;16.02;;;7.35;;
21474;SDS011;10899;53.576;9.960;2022-10-23T03:16:32;13.35;;;6.85;;
21474;SDS011;10899;53.576;9.960;2022-10-23T03:18:59;15.27;;;6.75;;
21474;SDS011;10899;53.576;9.960;2022-10-23T03:21:25;13.82;;;7.13;;
21474;SDS011;10899;53.576;9.960;2022-10-23T03:23:52;14.57;;;6.97;;
21474;SDS011;10899;53.576;9.960;2022-10-23T03:26:18;15.07;;;6.47;;
21474;SDS011;10899;53.576;9.960;2022-10-23T03:28:45;12.23;;;6.80;;
21474;SDS011;10899;53.576;9.960;2022-10-23T03:31:11;15.73;;;6.63;;
21474;SDS011;10899;53.576;9.960;2022-10-23T03:33:38;15.27;;;6.47;;
21474;SDS011;10899;53.576;9.960;2022-10-23T03:36:05;16.38;;;6.55;;
21474;SDS011;10899;53.576;9.960;2022-10-23T03:38:31;15.63;;;7.13;;
21474;SDS011;10899;53.576;9.960;2022-10-23T03:40:58;13.30;;;6.85;;
21474;SDS011;10899;53.576;9.960;2022-10-23T03:43:24;12.48;;;6.25;;
21474;SDS011;10899;53.576;9.960;2022-10-23T03:45:51;15.20;;;7.10;;
21474;SDS011;10899;53.576;9.960;2022-10-23T03:48:17;10.52;;;5.90;;
21474;SDS011;10899;53.576;9.960;2022-10-23T03:50:44;13.25;;;6.03;;
21474;SDS011;10899;53.576;9.960;2022-10-23T03:53:10;15.73;;;6.78;;
21474;SDS011;10899;53.576;9.960;2022-10-23T03:55:37;12.45;;;6.22;;
21474;SDS011;10899;53.576;9.960;2022-10-23T03:58:04;11.80;;;5.90;;
21474;SDS011;10899;53.576;9.960;2022-10-23T04:00:30;14.80;;;6.50;;
21474;SDS011;10899;53.576;9.960;2022-10-23T04:02:57;13.32;;;6.45;;
21474;SDS011;10899;53.576;9.960;2022-10-23T04:05:23;14.60;;;6.85;;
21474;SDS011;10899;53.576;9.960;2022-10-23T04:07:50;13.52;;;6.22;;
21474;SDS011;10899;53.576;9.960;2022-10-23T04:10:16;12.65;;;6.07;;
21474;SDS011;10899;53.576;9.960;2022-10-23T04:12:43;14.10;;;6.18;;
21474;SDS011;10899;53.576;9.960;2022-10-23T04:15:09;10.57;;;5.57;;
21474;SDS011;10899;53.576;9.960;2022-10-23T04:17:36;10.38;;;6.07;;
21474;SDS011;10899;53.576;9.960;2022-10-23T04:20:03;14.68;;;5.88;;
21474;SDS011;10899;53.576;9.960;2022-10-23T04:22:29;13.50;;;5.55;;
21474;SDS011;10899;53.576;9.960;2022-10-23T04:24:56;12.52;;;5.82;;
21474;SDS011;10899;53.576;9.960;2022-10-23T04:27:22;11.15;;;5.90;;
21474;SDS011;10899;53.576;9.960;2022-10-23T04:29:49;11.02;;;5.95;;
21474;SDS011;10899;53.576;9.960;2022-10-23T04:32:15;9.55;;;5.30;;
21474;SDS011;10899;53.576;9.960;2022-10-23T04:34:42;12.75;;;5.53;;
21474;SDS011;10899;53.576;9.960;2022-10-23T04:37:08;10.18;;;5.18;;
21474;SDS011;10899;53.576;9.960;2022-10-23T04:39:35;9.65;;;5.32;;
21474;SDS011;10899;53.576;9.960;2022-10-23T04:42:01;11.65;;;5.15;;
21474;SDS011;10899;53.576;9.960;2022-10-23T04:44:28;11.95;;;5.40;;
21474;SDS011;10899;53.576;9.960;2022-10-23T04:46:55;10.63;;;4.97;;
21474;SDS011;10899;53.576;9.960;2022-10-23T04:49:21;9.82;;;5.47;;
21474;SDS011;10899;53.576;9.960;2022-10-23T04:51:48;12.40;;;5.82;;
21474;SDS011;10899;53.576;9.960;2022-10-23T04:54:14;14.65;;;5.50;;
21474;SDS011;10899;53.576;9.960;2022-10-23T04:56:41;10.48;;;4.88;;
21474;SDS011;10899;53.576;9.960;2022-10-23T04:59:08;10.75;;;4.93;;
21474;SDS011;10899;53.576;9.960;2022-10-23T05:01:34;9.98;;;4.85;;
21474;SDS011;10899;53.576;9.960;2022-10-23T05:04:01;8.52;;;4.40;;
21474;SDS011;10899;53.576;9.960;2022-10-23T05:06:27;11.57;;;5.10;;
21474;SDS011;10899;53.576;9.960;2022-10-23T05:08:54;11.50;;;4.95;;
21474;SDS011;10899;53.576;9.960;2022-10-23T05:11:21;11.02;;;5.10;;
21474;SDS011;10899;53.576;9.960;2022-10-23T05:13:47;9.60;;;4.75;;
21474;SDS011;10899;53.576;9.960;2022-10-23T05:16:22;8.82;;;4.60;;
21474;SDS011;10899;53.576;9.960;2022-10-23T05:18:51;8.02;;;4.40;;
21474;SDS011;10899;53.576;9.960;2022-10-23T05:21:20;9.18;;;4.45;;
21474;SDS011;10899;53.576;9.960;2022-10-23T05:23:50;10.90;;;4.63;;
21474;SDS011;10899;53.576;9.960;2022-10-23T05:26:16;8.02;;;4.57;;
21474;SDS011;10899;53.576;9.960;2022-10-23T05:28:43;7.47;;;4.60;;
21474;SDS011;10899;53.576;9.960;2022-10-23T05:31:10;7.00;;;4.47;;
21474;SDS011;10899;53.576;9.960;2022-10-23T05:33:37;10.43;;;4.60;;
21474;SDS011;10899;53.576;9.960;2022-10-23T05:36:05;10.95;;;5.05;;
21474;SDS011;10899;53.576;9.960;2022-10-23T05:38:32;9.40;;;4.38;;
21474;SDS011;10899;53.576;9.960;2022-10-23T05:41:00;8.23;;;4.30;;
21474;SDS011;10899;53.576;9.960;2022-10-23T05:43:27;8.10;;;4.20;;
21474;SDS011;10899;53.576;9.960;2022-10-23T05:45:55;6.95;;;4.10;;
21474;SDS011;10899;53.576;9.960;2022-10-23T05:48:22;9.77;;;4.03;;
21474;SDS011;10899;53.576;9.960;2022-10-23T05:50:49;11.13;;;3.85;;
21474;SDS011;10899;53.576;9.960;2022-10-23T05:53:15;7.43;;;3.88;;
21474;SDS011;10899;53.576;9.960;2022-10-23T05:55:42;5.70;;;3.65;;
21474;SDS011;10899;53.576;9.960;2022-10-23T05:58:09;8.95;;;3.60;;
21474;SDS011;10899;53.576;9.960;2022-10-23T06:00:35;6.72;;;3.92;;
21474;SDS011;10899;53.576;9.960;2022-10-23T06:03:02;8.80;;;4.13;;
21474;SDS011;10899;53.576;9.960;2022-10-23T06:05:28;7.60;;;3.60;;
21474;SDS011;10899;53.576;9.960;2022-10-23T06:07:58;9.68;;;3.55;;
21474;SDS011;10899;53.576;9.960;2022-10-23T06:10:25;7.80;;;3.63;;
21474;SDS011;10899;53.576;9.960;2022-10-23T06:12:52;7.82;;;4.05;;
21474;SDS011;10899;53.576;9.960;2022-10-23T06:15:19;6.65;;;3.35;;
21474;SDS011;10899;53.576;9.960;2022-10-23T06:17:45;6.18;;;3.80;;
21474;SDS011;10899;53.576;9.960;2022-10-23T06:20:12;6.20;;;3.38;;
21474;SDS011;10899;53.576;9.960;2022-10-23T06:22:38;5.25;;;3.25;;
21474;SDS011;10899;53.576;9.960;2022-10-23T06:25:05;6.28;;;3.55;;
21474;SDS011;10899;53.576;9.960;2022-10-23T06:27:32;7.60;;;3.70;;
21474;SDS011;10899;53.576;9.960;2022-10-23T06:29:59;7.13;;;3.58;;
21474;SDS011;10899;53.576;9.960;2022-10-23T06:32:25;5.32;;;2.83;;
21474;SDS011;10899;53.576;9.960;2022-10-23T06:34:52;7.95;;;3.45;;
21474;SDS011;10899;53.576;9.960;2022-10-23T06:37:18;7.60;;;3.50;;
21474;SDS011;10899;53.576;9.960;2022-10-23T06:39:45;8.40;;;3.60;;
21474;SDS011;10899;53.576;9.960;2022-10-23T06:42:11;7.32;;;3.30;;
21474;SDS011;10899;53.576;9.960;2022-10-23T06:44:38;6.63;;;3.05;;
21474;SDS011;10899;53.576;9.960;2022-10-23T06:47:05;5.47;;;3.08;;
21474;SDS011;10899;53.576;9.960;2022-10-23T06:49:34;5.75;;;3.10;;
21474;SDS011;10899;53.576;9.960;2022-10-23T06:52:00;6.60;;;3.30;;
21474;SDS011;10899;53.576;9.960;2022-10-23T06:54:27;6.63;;;2.90;;
21474;SDS011;10899;53.576;9.960;2022-10-23T06:56:53;7.13;;;3.22;;
21474;SDS011;10899;53.576;9.960;2022-10-23T06:59:20;5.85;;;3.08;;
21474;SDS011;10899;53.576;9.960;2022-10-23T07:01:46;5.20;;;2.97;;
21474;SDS011;10899;53.576;9.960;2022-10-23T07:04:13;5.78;;;2.95;;
21474;SDS011;10899;53.576;9.960;2022-10-23T07:06:40;5.28;;;2.78;;
21474;SDS011;10899;53.576;9.960;2022-10-23T07:09:07;4.53;;;2.92;;
21474;SDS011;10899;53.576;9.960;2022-10-23T07:11:34;5.43;;;2.80;;
21474;SDS011;10899;53.576;9.960;2022-10-23T07:14:00;4.82;;;3.00;;
21474;SDS011;10899;53.576;9.960;2022-10-23T07:16:27;6.60;;;2.70;;
21474;SDS011;10899;53.576;9.960;2022-10-23T07:18:54;5.20;;;3.00;;
21474;SDS011;10899;53.576;9.960;2022-10-23T07:21:29;5.45;;;2.85;;
21474;SDS011;10899;53.576;9.960;2022-10-23T07:23:56;5.57;;;2.50;;
21474;SDS011;10899;53.576;9.960;2022-10-23T07:26:22;4.78;;;2.83;;
21474;SDS011;10899;53.576;9.960;2022-10-23T07:28:49;4.18;;;2.60;;
21474;SDS011;10899;53.576;9.960;2022-10-23T07:31:23;5.70;;;2.80;;
21474;SDS011;10899;53.576;9.960;2022-10-23T07:33:50;5.25;;;2.72;;
21474;SDS011;10899;53.576;9.960;2022-10-23T07:36:17;6.05;;;2.90;;
21474;SDS011;10899;53.576;9.960;2022-10-23T07:38:43;4.45;;;2.25;;
21474;SDS011;10899;53.576;9.960;2022-10-23T07:41:10;4.22;;;2.28;;
21474;SDS011;10899;53.576;9.960;2022-10-23T07:43:37;4.47;;;2.55;;
21474;SDS011;10899;53.576;9.960;2022-10-23T07:46:04;5.45;;;2.70;;
21474;SDS011;10899;53.576;9.960;2022-10-23T07:48:32;5.53;;;2.65;;
21474;SDS011;10899;53.576;9.960;2022-10-23T07:50:59;4.13;;;2.33;;
21474;SDS011;10899;53.576;9.960;2022-10-23T07:53:27;4.10;;;2.40;;
21474;SDS011;10899;53.576;9.960;2022-10-23T07:55:55;3.38;;;2.33;;
21474;SDS011;10899;53.576;9.960;2022-10-23T07:58:22;5.35;;;2.85;;
21474;SDS011;10899;53.576;9.960;2022-10-23T08:00:58;4.97;;;2.40;;
21474;SDS011;10899;53.576;9.960;2022-10-23T08:03:29;4.85;;;2.53;;
21474;SDS011;10899;53.576;9.960;2022-10-23T08:05:56;4.40;;;2.75;;
21474;SDS011;10899;53.576;9.960;2022-10-23T08:08:24;5.45;;;2.80;;
21474;SDS011;10899;53.576;9.960;2022-10-23T08:10:51;4.45;;;2.25;;
21474;SDS011;10899;53.576;9.960;2022-10-23T08:13:18;4.63;;;2.63;;
21474;SDS011;10899;53.576;9.960;2022-10-23T08:15:45;3.80;;;2.38;;
21474;SDS011;10899;53.576;9.960;2022-10-23T08:18:12;4.75;;;2.28;;
21474;SDS011;10899;53.576;9.960;2022-10-23T08:20:40;4.53;;;2.60;;
21474;SDS011;10899;53.576;9.960;2022-10-23T08:23:07;3.97;;;2.30;;
21474;SDS011;10899;53.576;9.960;2022-10-23T08:25:33;5.32;;;2.25;;
21474;SDS011;10899;53.576;9.960;2022-10-23T08:28:00;4.50;;;2.40;;
21474;SDS011;10899;53.576;9.960;2022-10-23T08:30:27;3.85;;;2.50;;
21474;SDS011;10899;53.576;9.960;2022-10-23T08:32:53;3.35;;;2.35;;
21474;SDS011;10899;53.576;9.960;2022-10-23T08:35:20;3.70;;;2.13;;
21474;SDS011;10899;53.576;9.960;2022-10-23T08:37:46;2.92;;;2.13;;
21474;SDS011;10899;53.576;9.960;2022-10-23T08:40:14;5.32;;;2.05;;
21474;SDS011;10899;53.576;9.960;2022-10-23T08:42:41;4.13;;;2.05;;
21474;SDS011;10899;53.576;9.960;2022-10-23T08:47:54;2.60;;;2.00;;
21474;SDS011;10899;53.576;9.960;2022-10-23T08:50:38;4.07;;;2.15;;
21474;SDS011;10899;53.576;9.960;2022-10-23T08:55:36;3.90;;;2.00;;
21474;SDS011;10899;53.576;9.960;2022-10-23T08:58:09;4.88;;;1.80;;
21474;SDS011;10899;53.576;9.960;2022-10-23T09:00:43;2.40;;;1.80;;
21474;SDS011;10899;53.576;9.960;2022-10-23T09:03:10;5.20;;;2.10;;
21474;SDS011;10899;53.576;9.960;2022-10-23T09:08:20;5.18;;;1.90;;
21474;SDS011;10899;53.576;9.960;2022-10-23T09:18:58;2.85;;;1.75;;
21474;SDS011;10899;53.576;9.960;2022-10-23T09:21:28;2.78;;;1.83;;
21474;SDS011;10899;53.576;9.960;2022-10-23T09:23:55;3.50;;;1.85;;
21474;SDS011;10899;53.576;9.960;2022-10-23T09:26:21;4.53;;;2.05;;
21474;SDS011;10899;53.576;9.960;2022-10-23T09:28:49;4.63;;;1.90;;
21474;SDS011;10899;53.576;9.960;2022-10-23T09:31:16;2.88;;;1.85;;
21474;SDS011;10899;53.576;9.960;2022-10-23T09:34:48;3.50;;;1.92;;
21474;SDS011;10899;53.576;9.960;2022-10-23T09:36:46;2.42;;;1.85;;
21474;SDS011;10899;53.576;9.960;2022-10-23T09:39:20;3.63;;;1.98;;
21474;SDS011;10899;53.576;9.960;2022-10-23T09:41:47;2.97;;;2.03;;
21474;SDS011;10899;53.576;9.960;2022-10-23T09:46:48;4.32;;;2.10;;
21474;SDS011;10899;53.576;9.960;2022-10-23T09:49:22;2.92;;;1.70;;
21474;SDS011;10899;53.576;9.960;2022-10-23T09:51:53;3.63;;;1.75;;
21474;SDS011;10899;53.576;9.960;2022-10-23T09:54:21;3.05;;;1.85;;
21474;SDS011;10899;53.576;9.960;2022-10-23T09:56:48;3.13;;;1.75;;
21474;SDS011;10899;53.576;9.960;2022-10-23T10:01:49;3.05;;;1.92;;
21474;SDS011;10899;53.576;9.960;2022-10-23T10:04:15;4.05;;;1.70;;
21474;SDS011;10899;53.576;9.960;2022-10-23T10:06:42;2.55;;;1.50;;
21474;SDS011;10899;53.576;9.960;2022-10-23T10:09:15;3.88;;;1.77;;
21474;SDS011;10899;53.576;9.960;2022-10-23T10:11:46;3.58;;;1.70;;
21474;SDS011;10899;53.576;9.960;2022-10-23T10:14:25;3.25;;;1.80;;
21474;SDS011;10899;53.576;9.960;2022-10-23T10:19:44;2.70;;;1.50;;
21474;SDS011;10899;53.576;9.960;2022-10-23T10:22:26;2.78;;;1.60;;
21474;SDS011;10899;53.576;9.960;2022-10-23T10:24:58;2.38;;;1.50;;
21474;SDS011;10899;53.576;9.960;2022-10-23T10:27:40;2.65;;;1.50;;
21474;SDS011;10899;53.576;9.960;2022-10-23T10:30:12;3.75;;;1.98;;
21474;SDS011;10899;53.576;9.960;2022-10-23T10:40:29;2.13;;;1.48;;
21474;SDS011;10899;53.576;9.960;2022-10-23T10:48:06;2.85;;;1.48;;
21474;SDS011;10899;53.576;9.960;2022-10-23T10:51:20;2.20;;;1.48;;
21474;SDS011;10899;53.576;9.960;2022-10-23T10:55:53;3.38;;;1.42;;
21474;SDS011;10899;53.576;9.960;2022-10-23T11:01:04;4.10;;;1.40;;
21474;SDS011;10899;53.576;9.960;2022-10-23T11:03:45;3.13;;;1.33;;
21474;SDS011;10899;53.576;9.960;2022-10-23T11:06:14;3.22;;;1.45;;
21474;SDS011;10899;53.576;9.960;2022-10-23T11:08:41;2.90;;;1.67;;
21474;SDS011;10899;53.576;9.960;2022-10-23T11:11:10;4.43;;;1.58;;
21474;SDS011;10899;53.576;9.960;2022-10-23T11:13:39;2.25;;;1.40;;
21474;SDS011;10899;53.576;9.960;2022-10-23T11:18:37;3.17;;;1.25;;
21474;SDS011;10899;53.576;9.960;2022-10-23T11:21:25;2.58;;;1.40;;
21474;SDS011;10899;53.576;9.960;2022-10-23T11:29:17;2.30;;;1.13;;
21474;SDS011;10899;53.576;9.960;2022-10-23T11:37:01;1.27;;;1.10;;
21474;SDS011;10899;53.576;9.960;2022-10-23T11:39:33;2.70;;;1.65;;
21474;SDS011;10899;53.576;9.960;2022-10-23T11:47:01;2.08;;;1.30;;
21474;SDS011;10899;53.576;9.960;2022-10-23T11:49:28;2.65;;;1.27;;
21474;SDS011;10899;53.576;9.960;2022-10-23T11:51:58;3.28;;;1.30;;
21474;SDS011;10899;53.576;9.960;2022-10-23T11:54:25;2.67;;;1.23;;
21474;SDS011;10899;53.576;9.960;2022-10-23T11:59:20;2.15;;;1.20;;
21474;SDS011;10899;53.576;9.960;2022-10-23T12:01:48;2.83;;;1.30;;
21474;SDS011;10899;53.576;9.960;2022-10-23T12:04:18;2.13;;;1.15;;
21474;SDS011;10899;53.576;9.960;2022-10-23T12:09:35;1.73;;;1.35;;
21474;SDS011;10899;53.576;9.960;2022-10-23T12:12:13;2.95;;;1.60;;
21474;SDS011;10899;53.576;9.960;2022-10-23T12:14:42;3.33;;;1.35;;
21474;SDS011;10899;53.576;9.960;2022-10-23T12:19:50;1.38;;;1.08;;
21474;SDS011;10899;53.576;9.960;2022-10-23T12:22:17;2.58;;;1.25;;
21474;SDS011;10899;53.576;9.960;2022-10-23T12:32:36;1.15;;;1.02;;
21474;SDS011;10899;53.576;9.960;2022-10-23T12:35:19;3.20;;;1.27;;
21474;SDS011;10899;53.576;9.960;2022-10-23T12:40:18;2.08;;;1.08;;
21474;SDS011;10899;53.576;9.960;2022-10-23T12:42:50;1.85;;;1.13;;
21474;SDS011;10899;53.576;9.960;2022-10-23T12:45:18;2.03;;;1.20;;
21474;SDS011;10899;53.576;9.960;2022-10-23T12:47:46;2.17;;;1.00;;
21474;SDS011;10899;53.576;9.960;2022-10-23T12:52:59;2.17;;;1.13;;
21474;SDS011;10899;53.576;9.960;2022-10-23T12:55:26;2.15;;;1.20;;
21474;SDS011;10899;53.576;9.960;2022-10-23T12:57:53;2.85;;;1.13;;
21474;SDS011;10899;53.576;9.960;2022-10-23T13:00:21;2.10;;;1.20;;
21474;SDS011;10899;53.576;9.960;2022-10-23T13:02:57;1.00;;;0.90;;
21474;SDS011;10899;53.576;9.960;2022-10-23T13:05:24;2.05;;;1.00;;
21474;SDS011;10899;53.576;9.960;2022-10-23T13:07:52;1.52;;;1.13;;
21474;SDS011;10899;53.576;9.960;2022-10-23T13:10:19;1.75;;;1.13;;
21474;SDS011;10899;53.576;9.960;2022-10-23T13:12:53;3.25;;;1.20;;
21474;SDS011;10899;53.576;9.960;2022-10-23T13:15:21;2.45;;;1.00;;
21474;SDS011;10899;53.576;9.960;2022-10-23T13:20:24;1.15;;;0.90;;
21474;SDS011;10899;53.576;9.960;2022-10-23T13:23:37;2.88;;;1.20;;
21474;SDS011;10899;53.576;9.960;2022-10-23T13:25:38;2.33;;;1.08;;
21474;SDS011;10899;53.576;9.960;2022-10-23T13:31:25;1.88;;;1.15;;
21474;SDS011;10899;53.576;9.960;2022-10-23T13:33:44;2.30;;;1.05;;
21474;SDS011;10899;53.576;9.960;2022-10-23T13:39:03;2.65;;;1.10;;
21474;SDS011;10899;53.576;9.960;2022-10-23T13:41:28;2.38;;;1.00;;
21474;SDS011;10899;53.576;9.960;2022-10-23T13:43:56;0.80;;;0.80;;
21474;SDS011;10899;53.576;9.960;2022-10-23T13:46:23;2.22;;;1.05;;
21474;SDS011;10899;53.576;9.960;2022-10-23T13:48:52;3.15;;;1.10;;
21474;SDS011;10899;53.576;9.960;2022-10-23T13:51:28;2.60;;;0.98;;
21474;SDS011;10899;53.576;9.960;2022-10-23T13:53:55;1.85;;;0.93;;
21474;SDS011;10899;53.576;9.960;2022-10-23T13:56:23;2.08;;;0.95;;
21474;SDS011;10899;53.576;9.960;2022-10-23T13:58:49;2.08;;;1.10;;
21474;SDS011;10899;53.576;9.960;2022-10-23T14:01:21;1.75;;;0.90;;
21474;SDS011;10899;53.576;9.960;2022-10-23T14:03:50;2.55;;;1.13;;
21474;SDS011;10899;53.576;9.960;2022-10-23T14:06:17;4.15;;;1.17;;
21474;SDS011;10899;53.576;9.960;2022-10-23T14:08:44;2.58;;;1.30;;
21474;SDS011;10899;53.576;9.960;2022-10-23T14:11:11;2.55;;;0.90;;
21474;SDS011;10899;53.576;9.960;2022-10-23T14:13:38;3.50;;;1.30;;
21474;SDS011;10899;53.576;9.960;2022-10-23T14:16:05;2.53;;;0.95;;
21474;SDS011;10899;53.576;9.960;2022-10-23T14:18:32;1.45;;;0.90;;
21474;SDS011;10899;53.576;9.960;2022-10-23T14:21:02;2.53;;;1.00;;
21474;SDS011;10899;53.576;9.960;2022-10-23T14:23:29;2.45;;;1.13;;
21474;SDS011;10899;53.576;9.960;2022-10-23T14:26:02;3.40;;;1.20;;
21474;SDS011;10899;53.576;9.960;2022-10-23T14:28:29;3.40;;;1.00;;
21474;SDS011;10899;53.576;9.960;2022-10-23T14:30:56;2.47;;;1.00;;
21474;SDS011;10899;53.576;9.960;2022-10-23T14:33:22;3.13;;;1.30;;
21474;SDS011;10899;53.576;9.960;2022-10-23T14:35:49;4.00;;;1.30;;
21474;SDS011;10899;53.576;9.960;2022-10-23T14:38:16;3.50;;;1.05;;
21474;SDS011;10899;53.576;9.960;2022-10-23T14:40:42;1.50;;;1.10;;
21474;SDS011;10899;53.576;9.960;2022-10-23T14:43:09;1.92;;;1.05;;
21474;SDS011;10899;53.576;9.960;2022-10-23T14:45:35;4.57;;;1.38;;
21474;SDS011;10899;53.576;9.960;2022-10-23T14:48:02;3.28;;;1.17;;
21474;SDS011;10899;53.576;9.960;2022-10-23T14:50:33;5.40;;;1.20;;
21474;SDS011;10899;53.576;9.960;2022-10-23T14:52:59;2.67;;;1.13;;
21474;SDS011;10899;53.576;9.960;2022-10-23T14:55:26;1.98;;;1.17;;
21474;SDS011;10899;53.576;9.960;2022-10-23T14:57:53;2.95;;;1.20;;
21474;SDS011;10899;53.576;9.960;2022-10-23T15:00:20;7.20;;;1.40;;
21474;SDS011;10899;53.576;9.960;2022-10-23T15:02:46;2.28;;;1.10;;
21474;SDS011;10899;53.576;9.960;2022-10-23T15:05:13;3.63;;;1.60;;
21474;SDS011;10899;53.576;9.960;2022-10-23T15:07:40;4.80;;;1.55;;
21474;SDS011;10899;53.576;9.960;2022-10-23T15:10:06;4.20;;;1.00;;
21474;SDS011;10899;53.576;9.960;2022-10-23T15:12:33;6.53;;;1.60;;
21474;SDS011;10899;53.576;9.960;2022-10-23T15:15:00;2.40;;;1.30;;
21474;SDS011;10899;53.576;9.960;2022-10-23T15:17:27;8.70;;;1.58;;
21474;SDS011;10899;53.576;9.960;2022-10-23T15:19:53;2.53;;;1.20;;
21474;SDS011;10899;53.576;9.960;2022-10-23T15:22:20;2.97;;;1.00;;
21474;SDS011;10899;53.576;9.960;2022-10-23T15:24:47;4.30;;;0.98;;
21474;SDS011;10899;53.576;9.960;2022-10-23T15:27:14;2.75;;;1.15;;
21474;SDS011;10899;53.576;9.960;2022-10-23T15:29:40;2.60;;;1.10;;
21474;SDS011;10899;53.576;9.960;2022-10-23T15:32:07;2.70;;;1.20;;
21474;SDS011;10899;53.576;9.960;2022-10-23T15:34:34;5.13;;;1.33;;
21474;SDS011;10899;53.576;9.960;2022-10-23T15:37:02;2.17;;;1.00;;
21474;SDS011;10899;53.576;9.960;2022-10-23T15:39:29;4.72;;;1.20;;
21474;SDS011;10899;53.576;9.960;2022-10-23T15:41:58;3.40;;;0.90;;
21474;SDS011;10899;53.576;9.960;2022-10-23T15:44:25;2.55;;;1.05;;
21474;SDS011;10899;53.576;9.960;2022-10-23T15:46:52;5.07;;;1.23;;
21474;SDS011;10899;53.576;9.960;2022-10-23T15:49:21;4.00;;;1.30;;
21474;SDS011;10899;53.576;9.960;2022-10-23T15:51:49;3.53;;;1.20;;
21474;SDS011;10899;53.576;9.960;2022-10-23T15:54:19;1.40;;;1.00;;
21474;SDS011;10899;53.576;9.960;2022-10-23T15:56:47;3.72;;;0.98;;
21474;SDS011;10899;53.576;9.960;2022-10-23T15:59:14;5.43;;;1.50;;
21474;SDS011;10899;53.576;9.960;2022-10-23T16:01:41;3.15;;;1.10;;
21474;SDS011;10899;53.576;9.960;2022-10-23T16:04:07;3.10;;;1.25;;
21474;SDS011;10899;53.576;9.960;2022-10-23T16:06:34;2.80;;;1.42;;
21474;SDS011;10899;53.576;9.960;2022-10-23T16:09:01;2.92;;;1.63;;
21474;SDS011;10899;53.576;9.960;2022-10-23T16:11:29;4.60;;;2.10;;
21474;SDS011;10899;53.576;9.960;2022-10-23T16:13:56;6.75;;;2.20;;
21474;SDS011;10899;53.576;9.960;2022-10-23T16:16:23;6.55;;;2.75;;
21474;SDS011;10899;53.576;9.960;2022-10-23T16:18:50;7.55;;;2.70;;
21474;SDS011;10899;53.576;9.960;2022-10-23T16:21:17;6.78;;;3.08;;
21474;SDS011;10899;53.576;9.960;2022-10-23T16:23:44;6.57;;;2.72;;
21474;SDS011;10899;53.576;9.960;2022-10-23T16:26:11;8.27;;;3.47;;
21474;SDS011;10899;53.576;9.960;2022-10-23T16:28:38;4.70;;;3.30;;